createdAt,value
2023-02-08T00:01:32.788Z,36.50
2023-02-08T00:06:37.266Z,43.00
2023-02-08T00:11:41.898Z,36.75
2023-02-08T00:16:46.246Z,35.75
2023-02-08T00:21:50.796Z,29.50
2023-02-08T00:26:55.489Z,33.00
2023-02-08T00:32:00.025Z,44.50
2023-02-08T00:37:05.497Z,34.75
2023-02-08T00:42:09.627Z,39.00
2023-02-08T00:47:13.906Z,35.50
2023-02-08T00:52:18.866Z,37.00
2023-02-08T00:57:23.273Z,32.25
2023-02-08T01:02:27.876Z,29.75
2023-02-08T01:07:32.312Z,28.00
2023-02-08T01:12:39.308Z,36.50
2023-02-08T01:17:43.975Z,30.25
2023-02-08T01:22:48.694Z,30.50
2023-02-08T01:27:53.298Z,23.00
2023-02-08T01:32:57.886Z,26.75
2023-02-08T01:38:04.983Z,25.25
2023-02-08T01:43:22.468Z,37.00
2023-02-08T01:48:30.956Z,28.25
2023-02-08T01:53:36.651Z,24.25
2023-02-08T01:58:43.685Z,25.25
2023-02-08T02:03:48.379Z,32.25
2023-02-08T02:09:15.570Z,26.50
2023-02-08T02:14:20.546Z,32.00
2023-02-08T02:19:37.066Z,24.25
2023-02-08T02:25:01.545Z,29.25
2023-02-08T02:30:24.413Z,25.00
2023-02-08T02:35:38.031Z,29.00
2023-02-08T02:40:51.704Z,28.50
2023-02-08T02:46:14.648Z,23.00
2023-02-08T02:51:21.673Z,24.50
2023-02-08T02:56:29.501Z,25.25
2023-02-08T03:01:35.451Z,25.75
2023-02-08T03:06:40.268Z,27.00
2023-02-08T03:11:50.360Z,32.50
2023-02-08T03:17:02.579Z,26.00
2023-02-08T03:22:23.904Z,20.50
2023-02-08T03:27:27.938Z,23.50
2023-02-08T03:32:38.440Z,21.00
2023-02-08T03:38:00.737Z,22.25
2023-02-08T03:43:07.838Z,25.25
2023-02-08T03:48:12.684Z,29.25
2023-02-08T03:53:19.099Z,21.25
2023-02-08T03:58:33.560Z,20.25
2023-02-08T04:03:38.381Z,21.75
2023-02-08T04:08:42.463Z,21.50
2023-02-08T04:13:46.525Z,20.25
2023-02-08T04:18:50.597Z,31.00
2023-02-08T04:23:54.650Z,24.00
2023-02-08T04:28:58.768Z,26.75
2023-02-08T04:34:03.992Z,22.75
2023-02-08T04:39:08.131Z,20.75
2023-02-08T04:44:12.203Z,21.75
2023-02-08T04:49:16.767Z,23.00
2023-02-08T04:54:20.916Z,23.75
2023-02-08T04:59:25.001Z,23.50
2023-02-08T05:04:29.134Z,21.75
2023-02-08T05:09:33.319Z,22.75
2023-02-08T05:14:37.441Z,21.25
2023-02-08T05:19:41.653Z,23.00
2023-02-08T05:24:45.832Z,23.50
2023-02-08T05:29:49.899Z,20.00
2023-02-08T05:34:55.376Z,24.25
2023-02-08T05:39:59.774Z,26.50
2023-02-08T05:45:03.956Z,24.00
2023-02-08T05:50:08.181Z,23.50
2023-02-08T05:55:12.280Z,19.00
2023-02-08T06:00:16.750Z,18.00
2023-02-08T06:05:20.855Z,21.75
2023-02-08T06:10:24.900Z,22.00
2023-02-08T06:15:29.093Z,20.00
2023-02-08T06:20:33.175Z,22.25
2023-02-08T06:25:37.193Z,20.25
2023-02-08T06:30:41.431Z,19.50
2023-02-08T06:35:49.509Z,20.75
2023-02-08T06:40:53.905Z,22.25
2023-02-08T06:45:58.084Z,22.00
2023-02-08T06:51:03.617Z,21.00
2023-02-08T06:56:07.951Z,21.25
2023-02-08T07:01:15.340Z,19.00
2023-02-08T07:06:20.663Z,19.50
2023-02-08T07:11:25.321Z,22.00
2023-02-08T07:16:29.504Z,26.75
2023-02-08T07:21:34.240Z,30.00
2023-02-08T07:26:38.927Z,20.00
2023-02-08T07:31:43.587Z,23.50
2023-02-08T07:36:48.234Z,22.50
2023-02-08T07:41:52.838Z,25.00
2023-02-08T07:46:59.151Z,23.50
2023-02-08T07:52:04.210Z,23.25
2023-02-08T07:57:09.355Z,17.50
2023-02-08T08:02:15.678Z,26.00
2023-02-08T08:07:20.334Z,25.00
2023-02-08T08:12:25.832Z,20.25
2023-02-08T08:17:30.253Z,25.00
2023-02-08T08:22:34.554Z,20.75
2023-02-08T08:27:39.367Z,21.75
2023-02-08T08:32:43.485Z,25.50
2023-02-08T08:37:47.592Z,20.00
2023-02-08T08:42:51.719Z,22.25
2023-02-08T08:47:55.896Z,21.25
2023-02-08T08:52:59.960Z,23.00
2023-02-08T08:58:04.063Z,22.50
2023-02-08T09:03:08.392Z,23.50
2023-02-08T09:08:14.997Z,26.25
2023-02-08T09:13:20.978Z,27.50
2023-02-08T09:18:25.219Z,22.50
2023-02-08T09:23:29.785Z,23.25
2023-02-08T09:28:34.325Z,26.25
2023-02-08T09:33:38.801Z,26.00
2023-02-08T09:38:43.066Z,23.00
2023-02-08T09:56:48.727Z,34.50
2023-02-08T10:01:55.750Z,32.25
2023-02-08T10:07:00.169Z,32.75
2023-02-08T10:12:19.901Z,35.50
2023-02-08T10:17:44.965Z,54.25
2023-02-08T10:22:56.135Z,87.50
2023-02-08T10:28:06.959Z,82.50
2023-02-08T10:33:11.926Z,78.00
2023-02-08T10:38:22.591Z,77.00
2023-02-08T10:43:40.052Z,74.00
2023-02-08T10:49:01.469Z,72.50
2023-02-08T10:54:06.818Z,73.00
2023-02-08T10:59:24.014Z,70.75
2023-02-08T11:04:29.206Z,68.25
2023-02-08T11:09:34.283Z,66.75
2023-02-08T11:14:47.080Z,69.50
2023-02-08T11:19:52.638Z,69.50
2023-02-08T11:24:59.477Z,66.00
2023-02-08T11:30:16.141Z,68.00
2023-02-08T11:35:23.239Z,63.50
2023-02-08T11:40:31.531Z,60.50
2023-02-08T11:45:38.014Z,60.00
2023-02-08T11:50:43.673Z,59.25
2023-02-08T11:56:02.817Z,69.50
2023-02-08T12:01:14.864Z,71.25
2023-02-08T12:06:41.966Z,69.75
2023-02-08T12:11:47.980Z,69.75
2023-02-08T12:16:52.805Z,63.00
2023-02-08T12:22:20.268Z,69.25
2023-02-08T12:27:29.019Z,75.25
2023-02-08T12:32:33.706Z,67.50
2023-02-08T12:38:02.607Z,56.75
2023-02-08T12:43:07.069Z,68.00
2023-02-08T12:48:21.752Z,57.50
2023-02-08T12:53:27.335Z,70.75
2023-02-08T12:58:39.265Z,64.25
2023-02-08T13:03:50.614Z,64.25
2023-02-08T13:08:59.287Z,66.00
2023-02-08T13:14:06.570Z,63.00
2023-02-08T13:19:23.147Z,57.50
2023-02-08T13:24:31.227Z,51.75
2023-02-08T13:29:37.091Z,56.75
2023-02-08T13:35:04.624Z,59.00
2023-02-08T13:40:09.266Z,53.75
2023-02-08T13:45:24.758Z,50.00
2023-02-08T13:50:47.756Z,55.50
2023-02-08T13:56:03.364Z,50.75
2023-02-08T14:01:12.848Z,50.50
2023-02-08T14:06:20.280Z,49.50
2023-02-08T14:11:33.966Z,51.75
2023-02-08T14:16:41.627Z,44.25
2023-02-08T14:21:49.384Z,49.25
2023-02-08T14:27:14.032Z,53.50
2023-02-08T14:32:29.961Z,56.25
2023-02-08T14:37:37.451Z,47.00
2023-02-08T14:43:01.765Z,47.00
2023-02-08T14:48:31.120Z,53.50
2023-02-08T14:53:59.314Z,45.75
2023-02-08T14:59:18.552Z,51.50
2023-02-08T15:04:26.056Z,49.00
2023-02-08T15:09:32.079Z,45.75
2023-02-08T15:14:38.521Z,46.25
2023-02-08T15:19:44.614Z,48.00
2023-02-08T15:25:12.204Z,52.00
2023-02-08T15:30:29.503Z,54.00
2023-02-08T15:35:36.360Z,45.75
2023-02-08T15:40:41.390Z,47.25
2023-02-08T15:45:57.659Z,50.00
2023-02-08T15:51:03.004Z,46.50
2023-02-08T15:56:11.563Z,49.00
2023-02-08T16:01:20.237Z,52.50
2023-02-08T16:06:30.189Z,52.50
2023-02-08T16:11:38.598Z,48.00
2023-02-08T16:16:45.038Z,49.50
2023-02-08T16:21:50.113Z,47.75
2023-02-08T16:27:00.047Z,49.00
2023-02-08T16:32:24.709Z,46.75
2023-02-08T16:37:33.733Z,50.50
2023-02-08T16:42:41.597Z,55.50
2023-02-08T16:47:47.898Z,49.25
2023-02-08T16:52:55.606Z,47.75
2023-02-08T16:58:00.628Z,48.25
2023-02-08T17:03:05.496Z,45.75
2023-02-08T17:08:14.088Z,47.00
2023-02-08T17:13:21.034Z,48.75
2023-02-08T17:18:26.019Z,49.50
2023-02-08T17:23:30.658Z,50.50
2023-02-08T17:28:36.975Z,53.00
2023-02-08T17:33:42.482Z,51.25
2023-02-08T17:38:47.876Z,55.75
2023-02-08T17:43:55.885Z,51.50
2023-02-08T17:49:04.874Z,55.25
2023-02-08T17:54:10.043Z,51.50
2023-02-08T17:59:14.965Z,50.50
2023-02-08T18:04:19.440Z,53.25
2023-02-08T18:09:25.181Z,54.50
2023-02-08T18:14:29.933Z,57.25
2023-02-08T18:19:34.501Z,58.00
2023-02-08T18:24:39.130Z,56.00
2023-02-08T18:29:43.872Z,57.00
2023-02-08T18:34:48.397Z,53.75
2023-02-08T18:39:53.759Z,56.00
2023-02-08T18:44:57.889Z,59.25
2023-02-08T18:50:01.978Z,53.50
2023-02-08T18:55:06.174Z,50.25
2023-02-08T19:00:10.653Z,51.00
2023-02-08T19:05:14.898Z,58.25
2023-02-08T19:10:19.511Z,55.25
2023-02-08T19:15:23.702Z,53.00
2023-02-08T19:20:27.813Z,55.75
2023-02-08T19:25:32.037Z,53.50
2023-02-08T19:30:36.364Z,58.50
2023-02-08T19:35:40.876Z,53.00
2023-02-08T19:40:45.234Z,54.75
2023-02-08T19:45:49.473Z,53.50
2023-02-08T19:50:57.619Z,61.00
2023-02-08T19:56:03.005Z,59.00
2023-02-08T20:01:11.017Z,58.25
2023-02-08T20:06:19.594Z,56.50
2023-02-08T20:11:30.564Z,54.25
2023-02-08T20:16:35.359Z,64.25
2023-02-08T20:21:41.434Z,57.25
2023-02-08T20:26:46.804Z,55.25
2023-02-08T20:31:56.758Z,56.00
2023-02-08T20:37:07.409Z,57.50
2023-02-08T20:42:12.403Z,54.50
2023-02-08T20:47:20.317Z,52.25
2023-02-08T20:52:24.396Z,53.75
2023-02-08T20:57:28.485Z,50.75
2023-02-08T21:02:32.632Z,56.00
2023-02-08T21:07:41.491Z,54.75
2023-02-08T21:12:45.563Z,51.00
2023-02-08T21:17:49.913Z,55.00
2023-02-08T21:22:54.063Z,60.00
2023-02-08T21:27:58.236Z,60.00
2023-02-08T21:33:02.388Z,55.00
2023-02-08T21:38:09.519Z,57.00
2023-02-08T21:43:13.789Z,58.00
2023-02-08T21:48:17.929Z,56.50
2023-02-08T21:53:40.280Z,60.00
2023-02-08T21:58:44.440Z,53.50
2023-02-08T22:03:48.503Z,55.50
2023-02-08T22:08:52.723Z,57.50
2023-02-08T22:13:56.800Z,51.75
2023-02-08T22:19:01.112Z,49.50
2023-02-08T22:24:05.230Z,52.00
2023-02-08T22:29:09.431Z,54.50
2023-02-08T22:34:13.575Z,52.00
2023-02-08T22:39:18.012Z,53.25
2023-02-08T22:44:22.066Z,49.50
2023-02-08T22:49:26.139Z,55.00
2023-02-08T22:54:30.349Z,60.75
2023-02-08T22:59:35.340Z,59.00
2023-02-08T23:04:39.587Z,61.25
2023-02-08T23:09:43.641Z,52.00
2023-02-08T23:14:47.764Z,58.25
2023-02-08T23:19:54.098Z,52.50
2023-02-08T23:24:58.296Z,51.50
2023-02-08T23:30:02.460Z,53.75
2023-02-08T23:35:06.780Z,58.75
2023-02-08T23:40:11.246Z,52.25
2023-02-08T23:45:15.669Z,49.75
2023-02-08T23:50:19.932Z,47.75
2023-02-08T23:55:24.791Z,47.00
